sensor_id;sensor_type;location;lat;lon;timestamp;temperature;humidity
4695;DHT22;2361;49.540;8.390;2023-10-08T00:02:46;17.50;99.90
4695;DHT22;2361;49.540;8.390;2023-10-08T00:05:13;17.40;99.90
4695;DHT22;2361;49.540;8.390;2023-10-08T00:07:44;17.50;99.90
4695;DHT22;2361;49.540;8.390;2023-10-08T00:10:11;17.50;99.90
4695;DHT22;2361;49.540;8.390;2023-10-08T00:12:39;17.40;99.90
4695;DHT22;2361;49.540;8.390;2023-10-08T00:15:07;17.40;99.90
4695;DHT22;2361;49.540;8.390;2023-10-08T00:17:37;17.40;99.90
4695;DHT22;2361;49.540;8.390;2023-10-08T00:20:04;17.40;99.90
4695;DHT22;2361;49.540;8.390;2023-10-08T00:22:32;17.40;99.90
4695;DHT22;2361;49.540;8.390;2023-10-08T00:25:02;17.40;99.90
4695;DHT22;2361;49.540;8.390;2023-10-08T00:27:37;17.30;99.90
4695;DHT22;2361;49.540;8.390;2023-10-08T00:30:06;17.40;99.90
4695;DHT22;2361;49.540;8.390;2023-10-08T00:32:44;17.40;99.90
4695;DHT22;2361;49.540;8.390;2023-10-08T00:35:12;17.40;99.90
4695;DHT22;2361;49.540;8.390;2023-10-08T00:37:40;17.40;99.90
4695;DHT22;2361;49.540;8.390;2023-10-08T00:40:08;17.40;99.90
4695;DHT22;2361;49.540;8.390;2023-10-08T00:42:40;17.40;99.90
4695;DHT22;2361;49.540;8.390;2023-10-08T00:45:12;17.40;99.90
4695;DHT22;2361;49.540;8.390;2023-10-08T00:47:43;17.40;99.90
4695;DHT22;2361;49.540;8.390;2023-10-08T00:50:10;17.30;99.90
4695;DHT22;2361;49.540;8.390;2023-10-08T00:52:48;17.30;99.90
4695;DHT22;2361;49.540;8.390;2023-10-08T00:55:37;17.30;99.90
4695;DHT22;2361;49.540;8.390;2023-10-08T00:58:04;17.30;99.90
4695;DHT22;2361;49.540;8.390;2023-10-08T01:00:38;17.20;99.90
4695;DHT22;2361;49.540;8.390;2023-10-08T01:03:07;17.20;99.90
4695;DHT22;2361;49.540;8.390;2023-10-08T01:05:42;17.20;99.90
4695;DHT22;2361;49.540;8.390;2023-10-08T01:08:14;17.20;99.90
4695;DHT22;2361;49.540;8.390;2023-10-08T01:10:49;17.10;99.90
4695;DHT22;2361;49.540;8.390;2023-10-08T01:13:25;17.10;99.90
4695;DHT22;2361;49.540;8.390;2023-10-08T01:15:53;17.10;99.90
4695;DHT22;2361;49.540;8.390;2023-10-08T01:18:21;17.10;99.90
4695;DHT22;2361;49.540;8.390;2023-10-08T01:20:58;17.10;99.90
4695;DHT22;2361;49.540;8.390;2023-10-08T01:23:31;17.10;99.90
4695;DHT22;2361;49.540;8.390;2023-10-08T01:25:58;17.10;99.90
4695;DHT22;2361;49.540;8.390;2023-10-08T01:28:48;17.10;99.90
4695;DHT22;2361;49.540;8.390;2023-10-08T01:31:15;17.00;99.90
4695;DHT22;2361;49.540;8.390;2023-10-08T01:33:42;17.00;99.90
4695;DHT22;2361;49.540;8.390;2023-10-08T01:36:17;17.00;99.90
4695;DHT22;2361;49.540;8.390;2023-10-08T01:38:44;16.90;99.90
4695;DHT22;2361;49.540;8.390;2023-10-08T01:41:16;16.90;99.90
4695;DHT22;2361;49.540;8.390;2023-10-08T01:43:57;16.80;99.90
4695;DHT22;2361;49.540;8.390;2023-10-08T01:46:26;16.80;99.90
4695;DHT22;2361;49.540;8.390;2023-10-08T01:48:54;16.80;99.90
4695;DHT22;2361;49.540;8.390;2023-10-08T01:51:26;16.80;99.90
4695;DHT22;2361;49.540;8.390;2023-10-08T01:54:04;16.80;99.90
4695;DHT22;2361;49.540;8.390;2023-10-08T01:56:38;16.80;99.90
4695;DHT22;2361;49.540;8.390;2023-10-08T01:59:09;16.70;99.90
4695;DHT22;2361;49.540;8.390;2023-10-08T02:01:38;16.60;99.90
4695;DHT22;2361;49.540;8.390;2023-10-08T02:04:06;16.60;99.90
4695;DHT22;2361;49.540;8.390;2023-10-08T02:06:39;16.60;99.90
4695;DHT22;2361;49.540;8.390;2023-10-08T02:09:09;16.50;99.90
4695;DHT22;2361;49.540;8.390;2023-10-08T02:11:48;16.50;99.90
4695;DHT22;2361;49.540;8.390;2023-10-08T02:14:21;16.40;99.90
4695;DHT22;2361;49.540;8.390;2023-10-08T02:16:50;16.40;99.90
4695;DHT22;2361;49.540;8.390;2023-10-08T02:19:23;16.40;99.90
4695;DHT22;2361;49.540;8.390;2023-10-08T02:21:55;16.40;99.90
4695;DHT22;2361;49.540;8.390;2023-10-08T02:24:24;16.30;99.90
4695;DHT22;2361;49.540;8.390;2023-10-08T02:26:53;16.30;99.90
4695;DHT22;2361;49.540;8.390;2023-10-08T02:29:25;16.30;99.90
4695;DHT22;2361;49.540;8.390;2023-10-08T02:31:55;16.30;99.90
4695;DHT22;2361;49.540;8.390;2023-10-08T02:34:23;16.30;99.90
4695;DHT22;2361;49.540;8.390;2023-10-08T02:36:50;16.30;99.90
4695;DHT22;2361;49.540;8.390;2023-10-08T02:39:18;16.30;99.90
4695;DHT22;2361;49.540;8.390;2023-10-08T02:41:50;16.20;99.90
4695;DHT22;2361;49.540;8.390;2023-10-08T02:44:17;16.20;99.90
4695;DHT22;2361;49.540;8.390;2023-10-08T02:46:45;16.10;99.90
4695;DHT22;2361;49.540;8.390;2023-10-08T02:49:16;16.10;99.90
4695;DHT22;2361;49.540;8.390;2023-10-08T02:51:51;16.10;99.90
4695;DHT22;2361;49.540;8.390;2023-10-08T02:54:21;16.10;99.90
4695;DHT22;2361;49.540;8.390;2023-10-08T02:56:58;16.10;99.90
4695;DHT22;2361;49.540;8.390;2023-10-08T02:59:32;16.10;99.90
4695;DHT22;2361;49.540;8.390;2023-10-08T03:02:13;16.10;99.90
4695;DHT22;2361;49.540;8.390;2023-10-08T03:04:51;16.10;99.90
4695;DHT22;2361;49.540;8.390;2023-10-08T03:07:19;16.10;99.90
4695;DHT22;2361;49.540;8.390;2023-10-08T03:09:59;16.10;99.90
4695;DHT22;2361;49.540;8.390;2023-10-08T03:12:33;16.10;99.90
4695;DHT22;2361;49.540;8.390;2023-10-08T03:15:01;16.10;99.90
4695;DHT22;2361;49.540;8.390;2023-10-08T03:17:43;16.10;99.90
4695;DHT22;2361;49.540;8.390;2023-10-08T03:20:18;16.10;99.90
4695;DHT22;2361;49.540;8.390;2023-10-08T03:22:56;16.00;99.90
4695;DHT22;2361;49.540;8.390;2023-10-08T03:25:24;16.10;99.90
4695;DHT22;2361;49.540;8.390;2023-10-08T03:27:51;16.00;99.90
4695;DHT22;2361;49.540;8.390;2023-10-08T03:30:20;16.00;99.90
4695;DHT22;2361;49.540;8.390;2023-10-08T03:32:47;16.00;99.90
4695;DHT22;2361;49.540;8.390;2023-10-08T03:35:21;16.00;99.90
4695;DHT22;2361;49.540;8.390;2023-10-08T03:37:54;15.90;99.90
4695;DHT22;2361;49.540;8.390;2023-10-08T03:40:41;15.80;99.90
4695;DHT22;2361;49.540;8.390;2023-10-08T03:43:11;15.70;99.90
4695;DHT22;2361;49.540;8.390;2023-10-08T03:46:00;15.70;99.90
4695;DHT22;2361;49.540;8.390;2023-10-08T03:48:32;15.60;99.90
4695;DHT22;2361;49.540;8.390;2023-10-08T03:51:04;15.60;99.90
4695;DHT22;2361;49.540;8.390;2023-10-08T03:53:39;15.50;99.90
4695;DHT22;2361;49.540;8.390;2023-10-08T03:56:27;15.50;99.90
4695;DHT22;2361;49.540;8.390;2023-10-08T03:58:58;15.50;99.90
4695;DHT22;2361;49.540;8.390;2023-10-08T04:01:27;15.50;99.90
4695;DHT22;2361;49.540;8.390;2023-10-08T04:03:59;15.50;99.90
4695;DHT22;2361;49.540;8.390;2023-10-08T04:06:28;15.50;99.90
4695;DHT22;2361;49.540;8.390;2023-10-08T04:08:57;15.50;99.90
4695;DHT22;2361;49.540;8.390;2023-10-08T04:11:32;15.50;99.90
4695;DHT22;2361;49.540;8.390;2023-10-08T04:14:03;15.50;99.90
4695;DHT22;2361;49.540;8.390;2023-10-08T04:16:31;15.50;99.90
4695;DHT22;2361;49.540;8.390;2023-10-08T04:19:04;15.50;99.90
4695;DHT22;2361;49.540;8.390;2023-10-08T04:21:31;15.50;99.90
4695;DHT22;2361;49.540;8.390;2023-10-08T04:24:00;15.50;99.90
4695;DHT22;2361;49.540;8.390;2023-10-08T04:26:30;15.50;99.90
4695;DHT22;2361;49.540;8.390;2023-10-08T04:29:00;15.50;99.90
4695;DHT22;2361;49.540;8.390;2023-10-08T04:31:33;15.40;99.90
4695;DHT22;2361;49.540;8.390;2023-10-08T04:34:07;15.40;99.90
4695;DHT22;2361;49.540;8.390;2023-10-08T04:36:44;15.40;99.90
4695;DHT22;2361;49.540;8.390;2023-10-08T04:39:14;15.40;99.90
4695;DHT22;2361;49.540;8.390;2023-10-08T04:41:48;15.30;99.90
4695;DHT22;2361;49.540;8.390;2023-10-08T04:44:20;15.30;99.90
4695;DHT22;2361;49.540;8.390;2023-10-08T04:46:48;15.30;99.90
4695;DHT22;2361;49.540;8.390;2023-10-08T04:49:19;15.30;99.90
4695;DHT22;2361;49.540;8.390;2023-10-08T04:52:00;15.30;99.90
4695;DHT22;2361;49.540;8.390;2023-10-08T04:54:31;15.30;99.90
4695;DHT22;2361;49.540;8.390;2023-10-08T04:57:02;15.30;99.90
4695;DHT22;2361;49.540;8.390;2023-10-08T04:59:31;15.30;99.90
4695;DHT22;2361;49.540;8.390;2023-10-08T05:02:03;15.30;99.90
4695;DHT22;2361;49.540;8.390;2023-10-08T05:04:40;15.20;99.90
4695;DHT22;2361;49.540;8.390;2023-10-08T05:07:19;15.20;99.90
4695;DHT22;2361;49.540;8.390;2023-10-08T05:10:05;15.10;99.90
4695;DHT22;2361;49.540;8.390;2023-10-08T05:12:33;15.10;99.90
4695;DHT22;2361;49.540;8.390;2023-10-08T05:15:01;15.00;99.90
4695;DHT22;2361;49.540;8.390;2023-10-08T05:17:43;15.00;99.90
4695;DHT22;2361;49.540;8.390;2023-10-08T05:20:18;15.00;99.90
4695;DHT22;2361;49.540;8.390;2023-10-08T05:23:13;15.00;99.90
4695;DHT22;2361;49.540;8.390;2023-10-08T05:26:07;15.00;99.90
4695;DHT22;2361;49.540;8.390;2023-10-08T05:28:38;15.00;99.90
4695;DHT22;2361;49.540;8.390;2023-10-08T05:31:25;15.00;99.90
4695;DHT22;2361;49.540;8.390;2023-10-08T05:34:07;15.00;99.90
4695;DHT22;2361;49.540;8.390;2023-10-08T05:36:44;15.10;99.90
4695;DHT22;2361;49.540;8.390;2023-10-08T05:39:38;15.00;99.90
4695;DHT22;2361;49.540;8.390;2023-10-08T05:42:05;15.00;99.90
4695;DHT22;2361;49.540;8.390;2023-10-08T05:44:46;15.00;99.90
4695;DHT22;2361;49.540;8.390;2023-10-08T05:47:33;15.00;99.90
4695;DHT22;2361;49.540;8.390;2023-10-08T05:50:02;15.10;99.90
4695;DHT22;2361;49.540;8.390;2023-10-08T05:52:46;15.10;99.90
4695;DHT22;2361;49.540;8.390;2023-10-08T05:55:19;15.10;99.90
4695;DHT22;2361;49.540;8.390;2023-10-08T05:57:54;15.20;99.90
4695;DHT22;2361;49.540;8.390;2023-10-08T06:00:51;15.20;99.90
4695;DHT22;2361;49.540;8.390;2023-10-08T06:03:52;15.20;99.90
4695;DHT22;2361;49.540;8.390;2023-10-08T06:06:48;15.20;99.90
4695;DHT22;2361;49.540;8.390;2023-10-08T06:09:34;15.20;99.90
4695;DHT22;2361;49.540;8.390;2023-10-08T06:12:04;15.20;99.90
4695;DHT22;2361;49.540;8.390;2023-10-08T06:14:39;15.30;99.90
4695;DHT22;2361;49.540;8.390;2023-10-08T06:17:24;15.30;99.90
4695;DHT22;2361;49.540;8.390;2023-10-08T06:20:02;15.20;99.90
4695;DHT22;2361;49.540;8.390;2023-10-08T06:22:36;15.20;99.90
4695;DHT22;2361;49.540;8.390;2023-10-08T06:25:03;15.20;99.90
4695;DHT22;2361;49.540;8.390;2023-10-08T06:27:44;15.20;99.90
4695;DHT22;2361;49.540;8.390;2023-10-08T06:30:12;15.10;99.90
4695;DHT22;2361;49.540;8.390;2023-10-08T06:32:44;15.10;99.90
4695;DHT22;2361;49.540;8.390;2023-10-08T06:35:12;15.10;99.90
4695;DHT22;2361;49.540;8.390;2023-10-08T06:37:45;15.10;99.90
4695;DHT22;2361;49.540;8.390;2023-10-08T06:40:12;15.10;99.90
4695;DHT22;2361;49.540;8.390;2023-10-08T06:42:59;15.10;99.90
4695;DHT22;2361;49.540;8.390;2023-10-08T06:45:30;15.10;99.90
4695;DHT22;2361;49.540;8.390;2023-10-08T06:47:59;15.10;99.90
4695;DHT22;2361;49.540;8.390;2023-10-08T06:50:28;15.10;99.90
4695;DHT22;2361;49.540;8.390;2023-10-08T06:52:56;15.20;99.90
4695;DHT22;2361;49.540;8.390;2023-10-08T06:55:23;15.20;99.90
4695;DHT22;2361;49.540;8.390;2023-10-08T06:57:53;15.20;99.90
4695;DHT22;2361;49.540;8.390;2023-10-08T07:00:20;15.30;99.90
4695;DHT22;2361;49.540;8.390;2023-10-08T07:03:05;15.40;99.90
4695;DHT22;2361;49.540;8.390;2023-10-08T07:05:37;15.60;99.90
4695;DHT22;2361;49.540;8.390;2023-10-08T07:08:08;15.70;99.90
4695;DHT22;2361;49.540;8.390;2023-10-08T07:10:35;15.80;99.90
4695;DHT22;2361;49.540;8.390;2023-10-08T07:13:02;16.00;99.90
4695;DHT22;2361;49.540;8.390;2023-10-08T07:15:32;16.20;99.90
4695;DHT22;2361;49.540;8.390;2023-10-08T07:17:59;16.40;99.90
4695;DHT22;2361;49.540;8.390;2023-10-08T07:20:37;16.80;99.90
4695;DHT22;2361;49.540;8.390;2023-10-08T07:23:06;17.50;99.90
4695;DHT22;2361;49.540;8.390;2023-10-08T07:25:55;18.10;99.90
4695;DHT22;2361;49.540;8.390;2023-10-08T07:28:26;18.90;99.90
4695;DHT22;2361;49.540;8.390;2023-10-08T07:30:55;20.30;99.90
4695;DHT22;2361;49.540;8.390;2023-10-08T07:33:24;21.60;99.90
4695;DHT22;2361;49.540;8.390;2023-10-08T07:35:52;22.80;99.90
4695;DHT22;2361;49.540;8.390;2023-10-08T07:38:27;23.20;99.90
4695;DHT22;2361;49.540;8.390;2023-10-08T07:40:55;23.10;99.90
4695;DHT22;2361;49.540;8.390;2023-10-08T07:43:23;22.70;99.90
4695;DHT22;2361;49.540;8.390;2023-10-08T07:45:50;22.30;99.90
4695;DHT22;2361;49.540;8.390;2023-10-08T07:48:20;21.90;99.90
4695;DHT22;2361;49.540;8.390;2023-10-08T07:50:51;21.50;99.90
4695;DHT22;2361;49.540;8.390;2023-10-08T07:53:18;21.20;99.90
4695;DHT22;2361;49.540;8.390;2023-10-08T07:55:45;21.10;99.90
4695;DHT22;2361;49.540;8.390;2023-10-08T07:58:15;21.20;99.90
4695;DHT22;2361;49.540;8.390;2023-10-08T08:00:43;21.30;99.90
4695;DHT22;2361;49.540;8.390;2023-10-08T08:03:21;21.50;99.90
4695;DHT22;2361;49.540;8.390;2023-10-08T08:05:49;21.50;99.90
4695;DHT22;2361;49.540;8.390;2023-10-08T08:08:19;21.40;99.90
4695;DHT22;2361;49.540;8.390;2023-10-08T08:10:49;21.30;99.90
4695;DHT22;2361;49.540;8.390;2023-10-08T08:13:16;21.20;99.90
4695;DHT22;2361;49.540;8.390;2023-10-08T08:15:47;21.10;99.90
4695;DHT22;2361;49.540;8.390;2023-10-08T08:18:18;21.00;99.90
4695;DHT22;2361;49.540;8.390;2023-10-08T08:20:49;20.90;99.90
4695;DHT22;2361;49.540;8.390;2023-10-08T08:23:16;20.80;99.90
4695;DHT22;2361;49.540;8.390;2023-10-08T08:25:43;20.70;99.90
4695;DHT22;2361;49.540;8.390;2023-10-08T08:28:33;20.50;99.90
4695;DHT22;2361;49.540;8.390;2023-10-08T08:31:03;20.40;99.90
4695;DHT22;2361;49.540;8.390;2023-10-08T08:33:31;20.20;99.90
4695;DHT22;2361;49.540;8.390;2023-10-08T08:36:22;20.10;99.90
4695;DHT22;2361;49.540;8.390;2023-10-08T08:38:51;20.00;99.90
4695;DHT22;2361;49.540;8.390;2023-10-08T08:41:19;19.90;99.90
4695;DHT22;2361;49.540;8.390;2023-10-08T08:43:51;19.90;99.90
4695;DHT22;2361;49.540;8.390;2023-10-08T08:46:31;19.80;99.90
4695;DHT22;2361;49.540;8.390;2023-10-08T08:49:06;19.70;99.90
4695;DHT22;2361;49.540;8.390;2023-10-08T08:51:35;19.70;99.90
4695;DHT22;2361;49.540;8.390;2023-10-08T08:54:03;19.70;99.90
4695;DHT22;2361;49.540;8.390;2023-10-08T08:56:35;19.60;99.90
4695;DHT22;2361;49.540;8.390;2023-10-08T08:59:05;19.60;99.90
4695;DHT22;2361;49.540;8.390;2023-10-08T09:01:32;19.60;99.90
4695;DHT22;2361;49.540;8.390;2023-10-08T09:04:03;19.60;99.90
4695;DHT22;2361;49.540;8.390;2023-10-08T09:06:36;19.50;99.90
4695;DHT22;2361;49.540;8.390;2023-10-08T09:09:07;19.50;99.90
4695;DHT22;2361;49.540;8.390;2023-10-08T09:11:50;19.50;99.90
4695;DHT22;2361;49.540;8.390;2023-10-08T09:14:24;19.40;99.90
4695;DHT22;2361;49.540;8.390;2023-10-08T09:17:01;19.40;99.90
4695;DHT22;2361;49.540;8.390;2023-10-08T09:19:36;19.30;99.90
4695;DHT22;2361;49.540;8.390;2023-10-08T09:22:09;19.30;99.90
4695;DHT22;2361;49.540;8.390;2023-10-08T09:24:41;19.30;99.90
4695;DHT22;2361;49.540;8.390;2023-10-08T09:27:11;19.40;99.90
4695;DHT22;2361;49.540;8.390;2023-10-08T09:29:41;19.40;99.90
4695;DHT22;2361;49.540;8.390;2023-10-08T09:32:10;19.50;99.90
4695;DHT22;2361;49.540;8.390;2023-10-08T09:34:40;19.50;99.90
4695;DHT22;2361;49.540;8.390;2023-10-08T09:37:07;19.60;99.90
4695;DHT22;2361;49.540;8.390;2023-10-08T09:39:34;19.70;99.90
4695;DHT22;2361;49.540;8.390;2023-10-08T09:42:03;19.80;99.90
4695;DHT22;2361;49.540;8.390;2023-10-08T09:44:33;19.80;99.90
4695;DHT22;2361;49.540;8.390;2023-10-08T09:47:05;19.80;99.90
4695;DHT22;2361;49.540;8.390;2023-10-08T09:49:39;19.80;99.90
4695;DHT22;2361;49.540;8.390;2023-10-08T09:52:10;19.70;99.90
4695;DHT22;2361;49.540;8.390;2023-10-08T09:54:53;19.70;99.90
4695;DHT22;2361;49.540;8.390;2023-10-08T09:57:42;19.70;99.90
4695;DHT22;2361;49.540;8.390;2023-10-08T10:00:10;19.70;99.90
4695;DHT22;2361;49.540;8.390;2023-10-08T10:02:42;19.80;99.90
4695;DHT22;2361;49.540;8.390;2023-10-08T10:05:20;19.90;99.90
4695;DHT22;2361;49.540;8.390;2023-10-08T10:07:48;20.10;99.90
4695;DHT22;2361;49.540;8.390;2023-10-08T10:10:31;20.20;99.90
4695;DHT22;2361;49.540;8.390;2023-10-08T10:13:06;20.30;99.90
4695;DHT22;2361;49.540;8.390;2023-10-08T10:15:36;20.40;99.90
4695;DHT22;2361;49.540;8.390;2023-10-08T10:21:00;20.60;99.90
4695;DHT22;2361;49.540;8.390;2023-10-08T10:23:54;20.80;99.90
4695;DHT22;2361;49.540;8.390;2023-10-08T10:26:28;21.00;99.90
4695;DHT22;2361;49.540;8.390;2023-10-08T10:34:19;21.30;99.90
4695;DHT22;2361;49.540;8.390;2023-10-08T10:36:49;21.40;99.90
4695;DHT22;2361;49.540;8.390;2023-10-08T10:39:23;21.50;99.90
4695;DHT22;2361;49.540;8.390;2023-10-08T10:41:55;21.50;99.90
4695;DHT22;2361;49.540;8.390;2023-10-08T10:44:48;21.60;99.90
4695;DHT22;2361;49.540;8.390;2023-10-08T10:47:20;21.60;99.90
4695;DHT22;2361;49.540;8.390;2023-10-08T10:49:52;21.70;99.90
4695;DHT22;2361;49.540;8.390;2023-10-08T10:52:26;21.70;99.90
4695;DHT22;2361;49.540;8.390;2023-10-08T10:55:11;21.90;99.90
4695;DHT22;2361;49.540;8.390;2023-10-08T10:58:02;22.00;99.90
4695;DHT22;2361;49.540;8.390;2023-10-08T11:00:43;22.10;99.90
4695;DHT22;2361;49.540;8.390;2023-10-08T11:03:11;22.10;99.90
4695;DHT22;2361;49.540;8.390;2023-10-08T11:05:48;22.20;99.90
4695;DHT22;2361;49.540;8.390;2023-10-08T11:08:18;22.40;99.90
4695;DHT22;2361;49.540;8.390;2023-10-08T11:10:47;22.40;99.90
4695;DHT22;2361;49.540;8.390;2023-10-08T11:13:19;22.50;99.90
4695;DHT22;2361;49.540;8.390;2023-10-08T11:15:50;22.50;99.90
4695;DHT22;2361;49.540;8.390;2023-10-08T11:18:22;22.60;99.90
4695;DHT22;2361;49.540;8.390;2023-10-08T11:20:51;22.70;99.90
4695;DHT22;2361;49.540;8.390;2023-10-08T11:23:35;22.70;99.90
4695;DHT22;2361;49.540;8.390;2023-10-08T11:26:04;22.60;99.90
4695;DHT22;2361;49.540;8.390;2023-10-08T11:28:39;22.50;99.90
4695;DHT22;2361;49.540;8.390;2023-10-08T11:31:14;22.40;99.90
4695;DHT22;2361;49.540;8.390;2023-10-08T11:33:45;22.20;99.90
4695;DHT22;2361;49.540;8.390;2023-10-08T11:36:21;22.20;99.90
4695;DHT22;2361;49.540;8.390;2023-10-08T11:38:56;22.10;99.90
4695;DHT22;2361;49.540;8.390;2023-10-08T11:41:33;22.10;99.90
4695;DHT22;2361;49.540;8.390;2023-10-08T11:44:16;22.10;99.90
4695;DHT22;2361;49.540;8.390;2023-10-08T11:46:46;22.10;99.90
4695;DHT22;2361;49.540;8.390;2023-10-08T11:49:18;22.00;99.90
4695;DHT22;2361;49.540;8.390;2023-10-08T11:51:46;22.00;99.90
4695;DHT22;2361;49.540;8.390;2023-10-08T11:54:13;21.90;99.90
4695;DHT22;2361;49.540;8.390;2023-10-08T11:56:41;21.90;99.90
4695;DHT22;2361;49.540;8.390;2023-10-08T11:59:08;21.90;99.90
4695;DHT22;2361;49.540;8.390;2023-10-08T12:01:36;21.90;99.90
4695;DHT22;2361;49.540;8.390;2023-10-08T12:04:04;21.90;99.90
4695;DHT22;2361;49.540;8.390;2023-10-08T12:06:32;21.80;99.90
4695;DHT22;2361;49.540;8.390;2023-10-08T12:08:59;21.80;99.90
4695;DHT22;2361;49.540;8.390;2023-10-08T12:11:27;21.80;99.90
4695;DHT22;2361;49.540;8.390;2023-10-08T12:13:58;21.80;99.90
4695;DHT22;2361;49.540;8.390;2023-10-08T12:16:29;21.80;99.90
4695;DHT22;2361;49.540;8.390;2023-10-08T12:18:56;21.80;99.90
4695;DHT22;2361;49.540;8.390;2023-10-08T12:21:26;21.80;99.90
4695;DHT22;2361;49.540;8.390;2023-10-08T12:23:59;21.90;99.90
4695;DHT22;2361;49.540;8.390;2023-10-08T12:26:31;21.80;99.90
4695;DHT22;2361;49.540;8.390;2023-10-08T12:28:58;21.80;99.90
4695;DHT22;2361;49.540;8.390;2023-10-08T12:31:27;21.90;99.90
4695;DHT22;2361;49.540;8.390;2023-10-08T12:33:55;21.80;99.90
4695;DHT22;2361;49.540;8.390;2023-10-08T12:36:27;21.90;99.90
4695;DHT22;2361;49.540;8.390;2023-10-08T12:38:59;21.80;99.90
4695;DHT22;2361;49.540;8.390;2023-10-08T12:41:26;21.90;99.90
4695;DHT22;2361;49.540;8.390;2023-10-08T12:43:53;21.90;99.90
4695;DHT22;2361;49.540;8.390;2023-10-08T12:46:21;21.90;99.90
4695;DHT22;2361;49.540;8.390;2023-10-08T12:48:52;21.90;99.90
4695;DHT22;2361;49.540;8.390;2023-10-08T12:51:22;21.90;99.90
4695;DHT22;2361;49.540;8.390;2023-10-08T12:53:55;22.00;99.90
4695;DHT22;2361;49.540;8.390;2023-10-08T12:56:30;22.00;99.90
4695;DHT22;2361;49.540;8.390;2023-10-08T12:59:06;22.00;99.90
4695;DHT22;2361;49.540;8.390;2023-10-08T13:01:35;22.00;99.90
4695;DHT22;2361;49.540;8.390;2023-10-08T13:04:03;22.00;99.90
4695;DHT22;2361;49.540;8.390;2023-10-08T13:06:34;22.00;99.90
4695;DHT22;2361;49.540;8.390;2023-10-08T13:09:04;22.00;99.90
4695;DHT22;2361;49.540;8.390;2023-10-08T13:11:39;22.00;99.90
4695;DHT22;2361;49.540;8.390;2023-10-08T13:14:06;22.10;99.90
4695;DHT22;2361;49.540;8.390;2023-10-08T13:16:34;22.10;99.90
4695;DHT22;2361;49.540;8.390;2023-10-08T13:19:04;22.10;99.90
4695;DHT22;2361;49.540;8.390;2023-10-08T13:21:34;22.10;99.90
4695;DHT22;2361;49.540;8.390;2023-10-08T13:24:04;22.20;99.90
4695;DHT22;2361;49.540;8.390;2023-10-08T13:26:36;22.20;99.90
4695;DHT22;2361;49.540;8.390;2023-10-08T13:29:05;22.20;99.90
4695;DHT22;2361;49.540;8.390;2023-10-08T13:31:32;22.30;99.90
4695;DHT22;2361;49.540;8.390;2023-10-08T13:34:05;22.40;99.90
4695;DHT22;2361;49.540;8.390;2023-10-08T13:36:36;22.40;99.90
4695;DHT22;2361;49.540;8.390;2023-10-08T13:39:06;22.40;99.90
4695;DHT22;2361;49.540;8.390;2023-10-08T13:41:45;22.40;99.90
4695;DHT22;2361;49.540;8.390;2023-10-08T13:44:15;22.40;99.90
4695;DHT22;2361;49.540;8.390;2023-10-08T13:46:42;22.40;99.90
4695;DHT22;2361;49.540;8.390;2023-10-08T13:49:16;22.40;99.90
4695;DHT22;2361;49.540;8.390;2023-10-08T13:51:44;22.40;99.90
4695;DHT22;2361;49.540;8.390;2023-10-08T13:54:13;22.40;99.90
4695;DHT22;2361;49.540;8.390;2023-10-08T13:56:41;22.40;99.90
4695;DHT22;2361;49.540;8.390;2023-10-08T13:59:14;22.30;99.90
4695;DHT22;2361;49.540;8.390;2023-10-08T14:01:45;22.30;99.90
4695;DHT22;2361;49.540;8.390;2023-10-08T14:04:18;22.20;99.90
4695;DHT22;2361;49.540;8.390;2023-10-08T14:06:57;22.20;99.90
4695;DHT22;2361;49.540;8.390;2023-10-08T14:09:25;22.20;99.90
4695;DHT22;2361;49.540;8.390;2023-10-08T14:11:59;22.20;99.90
4695;DHT22;2361;49.540;8.390;2023-10-08T14:14:27;22.10;99.90
4695;DHT22;2361;49.540;8.390;2023-10-08T14:16:58;22.10;99.90
4695;DHT22;2361;49.540;8.390;2023-10-08T14:19:38;22.20;99.90
4695;DHT22;2361;49.540;8.390;2023-10-08T14:22:18;22.20;99.90
4695;DHT22;2361;49.540;8.390;2023-10-08T14:24:48;22.20;99.90
4695;DHT22;2361;49.540;8.390;2023-10-08T14:27:26;22.20;99.90
4695;DHT22;2361;49.540;8.390;2023-10-08T14:30:00;22.30;99.90
4695;DHT22;2361;49.540;8.390;2023-10-08T14:32:30;22.40;99.90
4695;DHT22;2361;49.540;8.390;2023-10-08T14:34:59;22.40;99.90
4695;DHT22;2361;49.540;8.390;2023-10-08T14:37:52;22.40;99.90
4695;DHT22;2361;49.540;8.390;2023-10-08T14:40:38;22.50;99.90
4695;DHT22;2361;49.540;8.390;2023-10-08T14:43:23;22.50;99.90
4695;DHT22;2361;49.540;8.390;2023-10-08T14:45:51;22.60;99.90
4695;DHT22;2361;49.540;8.390;2023-10-08T14:48:19;22.60;99.90
4695;DHT22;2361;49.540;8.390;2023-10-08T14:50:47;22.60;99.90
4695;DHT22;2361;49.540;8.390;2023-10-08T14:53:15;22.60;99.90
4695;DHT22;2361;49.540;8.390;2023-10-08T14:55:42;22.60;99.90
4695;DHT22;2361;49.540;8.390;2023-10-08T14:58:10;22.60;99.90
4695;DHT22;2361;49.540;8.390;2023-10-08T15:00:38;22.60;99.90
4695;DHT22;2361;49.540;8.390;2023-10-08T15:03:06;22.70;99.90
4695;DHT22;2361;49.540;8.390;2023-10-08T15:05:35;22.60;99.90
4695;DHT22;2361;49.540;8.390;2023-10-08T15:08:03;22.60;99.90
4695;DHT22;2361;49.540;8.390;2023-10-08T15:10:36;22.60;99.90
4695;DHT22;2361;49.540;8.390;2023-10-08T15:13:04;22.50;99.90
4695;DHT22;2361;49.540;8.390;2023-10-08T15:15:31;22.50;99.90
4695;DHT22;2361;49.540;8.390;2023-10-08T15:18:01;22.50;99.90
4695;DHT22;2361;49.540;8.390;2023-10-08T15:20:29;22.50;99.90
4695;DHT22;2361;49.540;8.390;2023-10-08T15:22:59;22.40;99.90
4695;DHT22;2361;49.540;8.390;2023-10-08T15:25:26;22.40;99.90
4695;DHT22;2361;49.540;8.390;2023-10-08T15:27:54;22.40;99.90
4695;DHT22;2361;49.540;8.390;2023-10-08T15:30:21;22.40;99.90
4695;DHT22;2361;49.540;8.390;2023-10-08T15:32:49;22.40;99.90
4695;DHT22;2361;49.540;8.390;2023-10-08T15:35:19;22.40;99.90
4695;DHT22;2361;49.540;8.390;2023-10-08T15:37:47;22.30;99.90
4695;DHT22;2361;49.540;8.390;2023-10-08T15:40:14;22.30;99.90
4695;DHT22;2361;49.540;8.390;2023-10-08T15:42:52;22.40;99.90
4695;DHT22;2361;49.540;8.390;2023-10-08T15:45:22;22.40;99.90
4695;DHT22;2361;49.540;8.390;2023-10-08T15:47:51;22.30;99.90
4695;DHT22;2361;49.540;8.390;2023-10-08T15:50:20;22.30;99.90
4695;DHT22;2361;49.540;8.390;2023-10-08T15:52:49;22.20;99.90
4695;DHT22;2361;49.540;8.390;2023-10-08T15:55:16;22.20;99.90
4695;DHT22;2361;49.540;8.390;2023-10-08T15:57:44;22.10;99.90
4695;DHT22;2361;49.540;8.390;2023-10-08T16:00:12;22.10;99.90
4695;DHT22;2361;49.540;8.390;2023-10-08T16:02:40;22.10;99.90
4695;DHT22;2361;49.540;8.390;2023-10-08T16:05:09;22.00;99.90
4695;DHT22;2361;49.540;8.390;2023-10-08T16:07:36;22.00;99.90
4695;DHT22;2361;49.540;8.390;2023-10-08T16:10:04;22.00;99.90
4695;DHT22;2361;49.540;8.390;2023-10-08T16:12:31;22.00;99.90
4695;DHT22;2361;49.540;8.390;2023-10-08T16:14:58;22.00;99.90
4695;DHT22;2361;49.540;8.390;2023-10-08T16:17:25;22.00;99.90
4695;DHT22;2361;49.540;8.390;2023-10-08T16:19:57;22.00;99.90
4695;DHT22;2361;49.540;8.390;2023-10-08T16:22:24;21.90;99.90
4695;DHT22;2361;49.540;8.390;2023-10-08T16:24:51;21.90;99.90
4695;DHT22;2361;49.540;8.390;2023-10-08T16:27:19;21.90;99.90
4695;DHT22;2361;49.540;8.390;2023-10-08T16:29:46;21.80;99.90
4695;DHT22;2361;49.540;8.390;2023-10-08T16:32:14;21.80;99.90
4695;DHT22;2361;49.540;8.390;2023-10-08T16:34:41;21.80;99.90
4695;DHT22;2361;49.540;8.390;2023-10-08T16:37:09;21.70;99.90
4695;DHT22;2361;49.540;8.390;2023-10-08T16:39:41;21.60;99.90
4695;DHT22;2361;49.540;8.390;2023-10-08T16:42:08;21.60;99.90
4695;DHT22;2361;49.540;8.390;2023-10-08T16:44:35;21.50;99.90